Time;durP1;ratioP1;P1;durP2;ratioP2;P2;SDS_P1;SDS_P2;PMS_P1;PMS_P2;Temp;Humidity;BMP_temperature;BMP_pressure;BME280_temperature;BME280_humidity;BME280_pressure;Samples;Min_cycle;Max_cycle;Signal;HPM_P1;HPM_P2
2023/03/24 00:02:03;;;;;;;13.20;12.30;;;12.10;99.90;;;;;;5099735;28;20472;-70
2023/03/24 00:04:32;;;;;;;12.60;11.90;;;12.10;99.90;;;;;;5091788;28;20465;-71
2023/03/24 00:07:02;;;;;;;12.57;11.87;;;12.10;99.90;;;;;;5091597;28;20468;-71
2023/03/24 00:09:29;;;;;;;11.33;10.83;;;12.10;99.90;;;;;;5088384;28;20484;-71
2023/03/24 00:11:56;;;;;;;11.90;11.20;;;12.10;99.90;;;;;;5089949;28;20494;-70
2023/03/24 00:14:23;;;;;;;12.00;11.30;;;12.20;99.90;;;;;;5095613;28;20469;-71
2023/03/24 00:16:51;;;;;;;12.23;11.60;;;12.20;99.90;;;;;;5087092;28;20458;-71
2023/03/24 00:19:18;;;;;;;12.67;11.97;;;12.20;99.90;;;;;;5093707;28;20449;-70
2023/03/24 00:21:46;;;;;;;12.27;11.67;;;12.20;99.90;;;;;;5091467;28;21130;-71
2023/03/24 00:24:13;;;;;;;11.73;11.03;;;12.20;99.90;;;;;;5087640;28;20468;-70
2023/03/24 00:26:41;;;;;;;12.13;11.53;;;12.20;99.90;;;;;;5091602;28;20464;-71
2023/03/24 00:29:11;;;;;;;11.80;11.20;;;12.20;99.90;;;;;;5098965;28;20483;-72
2023/03/24 00:31:39;;;;;;;11.90;11.27;;;12.20;99.90;;;;;;5089279;28;21012;-70
2023/03/24 00:34:07;;;;;;;11.53;10.93;;;12.20;99.90;;;;;;5092133;28;20464;-71
2023/03/24 00:36:35;;;;;;;12.60;11.70;;;12.20;99.90;;;;;;5090831;28;20548;-72
2023/03/24 00:39:05;;;;;;;12.20;11.60;;;12.30;99.90;;;;;;5093146;28;20842;-71
2023/03/24 00:41:32;;;;;;;12.00;11.30;;;12.30;99.90;;;;;;5098371;28;20961;-72
2023/03/24 00:44:02;;;;;;;13.00;12.30;;;12.30;99.90;;;;;;5101063;28;21029;-70
2023/03/24 00:46:31;;;;;;;11.70;11.07;;;12.30;99.90;;;;;;5090786;28;20457;-71
2023/03/24 00:49:02;;;;;;;13.37;12.60;;;12.40;99.90;;;;;;5092227;28;20468;-70
2023/03/24 00:51:31;;;;;;;13.10;12.40;;;12.40;99.90;;;;;;5089652;28;20564;-71
2023/03/24 00:53:58;;;;;;;13.03;12.30;;;12.40;99.90;;;;;;5097442;28;20591;-71
2023/03/24 00:56:29;;;;;;;13.67;12.97;;;12.40;99.90;;;;;;5093831;28;20476;-70
2023/03/24 00:58:57;;;;;;;12.60;11.90;;;12.40;99.90;;;;;;5096309;28;20719;-71
2023/03/24 01:01:26;;;;;;;12.50;11.73;;;12.40;99.90;;;;;;5097780;28;21022;-71
2023/03/24 01:03:53;;;;;;;12.47;11.57;;;12.30;99.90;;;;;;5091212;28;20469;-72
2023/03/24 01:06:22;;;;;;;12.90;12.10;;;12.30;99.90;;;;;;5089615;28;20465;-71
2023/03/24 01:08:52;;;;;;;12.00;11.30;;;12.30;99.90;;;;;;5095305;28;21399;-72
2023/03/24 01:11:23;;;;;;;12.70;11.90;;;12.20;99.90;;;;;;5091184;28;20591;-71
2023/03/24 01:13:53;;;;;;;11.47;10.73;;;12.30;99.90;;;;;;5095737;28;20838;-71
2023/03/24 01:16:24;;;;;;;11.70;11.10;;;12.30;99.90;;;;;;5090211;28;20602;-70
2023/03/24 01:18:51;;;;;;;11.97;11.27;;;12.30;99.90;;;;;;5093411;28;21104;-70
2023/03/24 01:21:18;;;;;;;13.27;11.90;;;12.30;99.90;;;;;;5098103;28;20464;-71
2023/03/24 01:23:45;;;;;;;12.20;11.50;;;12.30;99.90;;;;;;5089844;28;20465;-70
2023/03/24 01:26:12;;;;;;;12.13;11.40;;;12.30;99.90;;;;;;5092574;28;20482;-71
2023/03/24 01:28:42;;;;;;;11.77;11.10;;;12.30;99.90;;;;;;5100255;28;21107;-70
2023/03/24 01:31:11;;;;;;;12.43;11.63;;;12.40;99.90;;;;;;5094999;28;20488;-70
2023/03/24 01:33:39;;;;;;;13.97;12.87;;;12.40;99.90;;;;;;5085749;28;20469;-70
2023/03/24 01:36:07;;;;;;;12.87;12.10;;;12.40;99.90;;;;;;5089177;28;20460;-71
2023/03/24 01:38:36;;;;;;;12.90;12.10;;;12.40;99.90;;;;;;5088594;28;20474;-70
2023/03/24 01:41:05;;;;;;;12.90;12.13;;;12.40;99.90;;;;;;5093343;28;20527;-70
2023/03/24 01:43:33;;;;;;;12.43;11.73;;;12.50;99.90;;;;;;5098294;28;20558;-71
2023/03/24 01:46:14;;;;;;;12.07;11.30;;;12.50;99.90;;;;;;5094692;28;20468;-71
2023/03/24 01:48:45;;;;;;;11.93;11.33;;;12.50;99.90;;;;;;5089050;28;21016;-70
2023/03/24 01:51:17;;;;;;;12.90;12.10;;;12.50;99.90;;;;;;5093060;28;20477;-71
2023/03/24 01:53:50;;;;;;;11.70;11.10;;;12.50;99.90;;;;;;5092035;28;20684;-71
2023/03/24 01:56:17;;;;;;;13.00;12.20;;;12.50;99.90;;;;;;5091521;28;20458;-71
2023/03/24 01:58:49;;;;;;;13.03;12.03;;;12.50;99.90;;;;;;5094409;28;20833;-69
2023/03/24 02:01:18;;;;;;;12.20;11.50;;;12.60;99.90;;;;;;5090868;28;20484;-70
2023/03/24 02:03:45;;;;;;;12.27;11.57;;;12.60;99.90;;;;;;5089021;28;20468;-71
2023/03/24 02:06:14;;;;;;;11.80;11.10;;;12.60;99.90;;;;;;5093149;28;20458;-70
2023/03/24 02:08:47;;;;;;;11.33;10.63;;;12.60;99.90;;;;;;5092322;28;20462;-71
2023/03/24 02:11:14;;;;;;;11.20;10.60;;;12.60;99.90;;;;;;5095706;28;20517;-70
2023/03/24 02:13:41;;;;;;;11.50;10.80;;;12.60;99.90;;;;;;5092747;28;20468;-71
2023/03/24 02:16:23;;;;;;;11.43;10.80;;;12.60;99.90;;;;;;5088711;28;20541;-70
2023/03/24 02:19:02;;;;;;;10.30;9.70;;;12.70;99.90;;;;;;5088518;28;20462;-71
2023/03/24 02:22:03;;;;;;;10.73;10.13;;;12.70;99.90;;;;;;5096318;28;20890;-71
2023/03/24 02:24:59;;;;;;;10.00;9.33;;;12.70;99.90;;;;;;5094395;28;20802;-70
2023/03/24 02:28:01;;;;;;;9.53;8.93;;;12.70;99.90;;;;;;5046813;28;20469;-71
2023/03/24 02:31:06;;;;;;;9.30;8.70;;;12.70;99.90;;;;;;5094568;28;20481;-71
2023/03/24 02:34:18;;;;;;;8.57;8.00;;;12.80;99.90;;;;;;5090140;28;20968;-71
2023/03/24 02:37:27;;;;;;;10.43;8.73;;;12.90;99.90;;;;;;5084420;28;20445;-71
2023/03/24 02:40:11;;;;;;;9.00;8.10;;;12.90;99.90;;;;;;5092552;28;20599;-71
2023/03/24 02:42:49;;;;;;;8.40;7.60;;;13.00;99.90;;;;;;5087973;28;20553;-72
2023/03/24 02:45:25;;;;;;;8.10;7.40;;;13.10;99.90;;;;;;5098259;28;20497;-71
2023/03/24 02:48:02;;;;;;;7.77;7.17;;;13.10;99.90;;;;;;5098354;28;20590;-72
2023/03/24 02:50:36;;;;;;;8.07;7.57;;;13.20;99.90;;;;;;5095326;28;20467;-71
2023/03/24 02:53:10;;;;;;;7.80;7.30;;;13.30;99.90;;;;;;5089260;28;20489;-70
2023/03/24 02:55:44;;;;;;;6.93;6.43;;;13.30;99.90;;;;;;5090809;28;20465;-71
2023/03/24 02:58:17;;;;;;;7.53;7.03;;;13.40;99.90;;;;;;5085697;28;20503;-70
2023/03/24 03:00:47;;;;;;;7.00;6.50;;;13.50;99.90;;;;;;5089784;28;20549;-71
2023/03/24 03:03:20;;;;;;;6.50;6.10;;;13.50;99.90;;;;;;5090360;28;20462;-70
2023/03/24 03:05:52;;;;;;;6.93;6.43;;;13.60;99.90;;;;;;5092455;28;20461;-70
2023/03/24 03:08:22;;;;;;;7.83;7.07;;;13.60;99.90;;;;;;5091486;28;20461;-71
2023/03/24 03:10:52;;;;;;;7.00;6.60;;;13.60;99.90;;;;;;5092605;28;20497;-71
2023/03/24 03:13:24;;;;;;;7.30;6.70;;;13.70;99.90;;;;;;5093133;28;20484;-70
2023/03/24 03:15:56;;;;;;;7.60;7.10;;;13.70;99.90;;;;;;5095985;28;20458;-70
2023/03/24 03:18:29;;;;;;;7.53;7.03;;;13.70;99.90;;;;;;5098988;28;20466;-70
2023/03/24 03:21:01;;;;;;;7.60;7.03;;;13.80;99.90;;;;;;5099963;28;20552;-71
2023/03/24 03:23:36;;;;;;;6.93;6.47;;;13.70;99.90;;;;;;5090153;28;20499;-70
2023/03/24 03:26:08;;;;;;;6.83;6.33;;;13.80;99.90;;;;;;5101356;28;20453;-71
2023/03/24 03:28:38;;;;;;;6.73;6.33;;;13.80;99.90;;;;;;5087962;28;20481;-71
2023/03/24 03:31:13;;;;;;;6.50;6.20;;;13.90;99.90;;;;;;5096713;28;20456;-69
2023/03/24 03:33:44;;;;;;;6.23;5.93;;;13.90;99.90;;;;;;5090522;28;20488;-70
2023/03/24 03:36:18;;;;;;;6.90;6.33;;;13.80;99.90;;;;;;5097003;28;20469;-70
2023/03/24 03:38:49;;;;;;;6.87;6.40;;;13.80;99.90;;;;;;5096573;28;20454;-70
2023/03/24 03:41:18;;;;;;;8.13;7.53;;;13.80;99.90;;;;;;5098030;28;20457;-70
2023/03/24 03:43:46;;;;;;;8.10;7.50;;;13.70;99.90;;;;;;5092396;28;20500;-70
2023/03/24 03:46:14;;;;;;;6.80;6.40;;;13.50;99.90;;;;;;5089911;28;20831;-70
2023/03/24 03:48:42;;;;;;;6.73;6.30;;;13.40;99.90;;;;;;5097142;28;20829;-70
2023/03/24 03:51:09;;;;;;;6.93;6.53;;;13.40;99.90;;;;;;5098392;28;20514;-71
2023/03/24 03:53:41;;;;;;;6.50;6.10;;;13.40;99.90;;;;;;5096946;28;20484;-71
2023/03/24 03:56:08;;;;;;;7.37;6.87;;;13.40;99.90;;;;;;5097603;28;20476;-69
2023/03/24 03:58:41;;;;;;;8.23;7.73;;;13.40;99.90;;;;;;5094622;28;20449;-70
2023/03/24 04:01:12;;;;;;;16.03;15.13;;;13.30;99.90;;;;;;5090258;28;21287;-69
2023/03/24 04:03:52;;;;;;;21.57;17.60;;;13.20;99.90;;;;;;5091438;28;20478;-69
2023/03/24 04:06:30;;;;;;;16.40;15.50;;;13.00;99.90;;;;;;5091618;28;20489;-71
2023/03/24 04:09:06;;;;;;;14.10;13.30;;;12.70;99.90;;;;;;5093781;28;20460;-70
2023/03/24 04:11:45;;;;;;;15.57;14.47;;;12.60;99.90;;;;;;5097775;28;20971;-71
2023/03/24 04:14:27;;;;;;;14.77;13.80;;;12.50;99.90;;;;;;5092303;28;20464;-71
2023/03/24 04:17:03;;;;;;;12.47;11.80;;;12.40;99.90;;;;;;5093993;28;20852;-72
2023/03/24 04:19:43;;;;;;;11.87;11.27;;;12.30;99.90;;;;;;5093613;28;20458;-72
2023/03/24 04:22:25;;;;;;;11.40;10.70;;;12.20;99.90;;;;;;5098273;28;20456;-72
2023/03/24 04:24:55;;;;;;;9.47;8.97;;;12.10;99.90;;;;;;5102431;28;20970;-71
2023/03/24 04:27:30;;;;;;;9.67;9.07;;;12.10;99.90;;;;;;5091705;28;20466;-71
2023/03/24 04:30:13;;;;;;;10.33;9.53;;;12.00;99.90;;;;;;5090901;28;20568;-73
2023/03/24 04:32:45;;;;;;;10.23;8.80;;;12.00;99.90;;;;;;5091351;28;20877;-72
2023/03/24 04:35:25;;;;;;;9.73;8.90;;;12.00;99.90;;;;;;5086875;28;20469;-71
2023/03/24 04:37:52;;;;;;;9.30;8.50;;;12.00;99.90;;;;;;5090063;28;20462;-71
2023/03/24 04:40:21;;;;;;;9.17;8.47;;;12.00;99.90;;;;;;5092217;28;20458;-71
2023/03/24 04:42:51;;;;;;;9.70;9.00;;;12.00;99.90;;;;;;5092337;28;20489;-73
2023/03/24 04:45:24;;;;;;;9.13;8.53;;;12.00;99.90;;;;;;5093688;28;20477;-72
2023/03/24 04:47:55;;;;;;;8.20;7.70;;;12.00;99.90;;;;;;5095021;28;20862;-71
2023/03/24 04:50:30;;;;;;;8.70;8.00;;;12.00;99.90;;;;;;5090019;28;20507;-72
2023/03/24 04:52:57;;;;;;;7.30;6.83;;;11.90;99.90;;;;;;5091048;28;20481;-72
2023/03/24 04:55:44;;;;;;;8.20;7.60;;;12.00;99.90;;;;;;5087336;28;20466;-72
2023/03/24 04:58:11;;;;;;;8.23;7.50;;;12.00;99.90;;;;;;5094711;28;20487;-73
2023/03/24 05:00:40;;;;;;;7.63;7.03;;;12.00;99.90;;;;;;5093238;28;20484;-72
2023/03/24 05:03:07;;;;;;;6.63;6.13;;;12.00;99.90;;;;;;5091686;28;20461;-71
2023/03/24 05:05:34;;;;;;;7.40;6.70;;;11.70;99.90;;;;;;5090949;28;21203;-72
2023/03/24 05:08:02;;;;;;;7.07;6.53;;;11.50;99.90;;;;;;5088665;28;20454;-72
2023/03/24 05:10:29;;;;;;;7.37;6.97;;;11.30;99.90;;;;;;5084590;28;20494;-72
2023/03/24 05:12:56;;;;;;;7.73;7.10;;;11.00;99.90;;;;;;5093481;28;20490;-72
2023/03/24 05:15:23;;;;;;;7.83;7.27;;;10.90;99.90;;;;;;5088002;28;20474;-71
2023/03/24 05:17:51;;;;;;;7.53;7.03;;;10.70;99.90;;;;;;5088362;28;20637;-72
2023/03/24 05:20:18;;;;;;;7.80;7.30;;;10.60;99.90;;;;;;5091313;28;21022;-71
2023/03/24 05:22:45;;;;;;;7.07;6.53;;;10.40;99.90;;;;;;5092367;28;20453;-72
2023/03/24 05:25:12;;;;;;;8.30;7.23;;;10.30;99.90;;;;;;5090379;28;20473;-71
2023/03/24 05:27:39;;;;;;;6.40;6.10;;;10.20;99.90;;;;;;5092610;28;20560;-70
2023/03/24 05:30:07;;;;;;;7.17;6.57;;;10.10;99.90;;;;;;5087816;28;20530;-71
2023/03/24 05:32:34;;;;;;;7.33;6.30;;;10.00;99.90;;;;;;5091043;28;20482;-70
2023/03/24 05:35:04;;;;;;;6.80;6.30;;;10.00;99.90;;;;;;5090911;28;20960;-70
2023/03/24 05:37:30;;;;;;;7.10;6.30;;;9.90;99.90;;;;;;5087538;28;20553;-72
2023/03/24 05:39:58;;;;;;;8.07;6.27;;;9.80;99.90;;;;;;5099890;28;20472;-72
2023/03/24 05:42:24;;;;;;;6.60;5.90;;;9.80;99.90;;;;;;5090838;28;20485;-70
2023/03/24 05:44:51;;;;;;;5.40;5.10;;;9.80;99.90;;;;;;5089071;28;20506;-70
2023/03/24 05:47:19;;;;;;;11.30;5.70;;;9.70;99.90;;;;;;5090571;28;20533;-70
2023/03/24 05:49:45;;;;;;;5.20;4.90;;;9.70;99.90;;;;;;5086940;28;20454;-71
2023/03/24 05:52:15;;;;;;;6.20;5.20;;;9.70;99.90;;;;;;5094567;28;20478;-70
2023/03/24 05:54:42;;;;;;;4.80;4.60;;;9.70;99.90;;;;;;5091145;28;20557;-71
2023/03/24 05:57:12;;;;;;;6.60;5.40;;;9.80;99.90;;;;;;5091886;28;20537;-71
2023/03/24 05:59:40;;;;;;;7.23;4.57;;;9.80;99.90;;;;;;5088489;28;20457;-69
2023/03/24 06:02:07;;;;;;;5.57;5.07;;;9.80;99.90;;;;;;5087673;28;21065;-71
2023/03/24 06:04:34;;;;;;;4.90;4.50;;;9.80;99.90;;;;;;5088745;28;20470;-70
2023/03/24 06:07:02;;;;;;;5.70;5.23;;;9.90;99.90;;;;;;5088018;28;20469;-71
2023/03/24 06:09:34;;;;;;;9.37;4.90;;;9.90;99.90;;;;;;5090799;28;20551;-71
2023/03/24 06:12:02;;;;;;;11.10;5.17;;;9.90;99.90;;;;;;5092375;28;20454;-69
2023/03/24 06:14:29;;;;;;;4.70;4.50;;;9.90;99.90;;;;;;5090156;28;20725;-70
2023/03/24 06:16:58;;;;;;;4.60;4.20;;;9.90;99.90;;;;;;5090793;28;20486;-72
2023/03/24 06:19:29;;;;;;;4.27;3.93;;;10.00;99.90;;;;;;5096708;28;20462;-69
2023/03/24 06:21:59;;;;;;;7.17;4.10;;;10.00;99.90;;;;;;5091012;28;20540;-71
2023/03/24 06:24:26;;;;;;;5.23;4.83;;;10.00;99.90;;;;;;5094179;28;20453;-71
2023/03/24 06:26:57;;;;;;;8.80;5.30;;;10.00;99.90;;;;;;5086066;28;22622;-71
2023/03/24 06:29:26;;;;;;;7.97;5.17;;;10.10;99.90;;;;;;5090444;28;20482;-69
2023/03/24 06:31:52;;;;;;;11.87;5.90;;;10.10;99.90;;;;;;5089909;28;20472;-70
2023/03/24 06:34:21;;;;;;;7.30;5.50;;;10.00;99.90;;;;;;5087936;28;20502;-71
2023/03/24 06:36:47;;;;;;;7.23;5.50;;;10.00;99.90;;;;;;5093387;28;20999;-70
2023/03/24 06:39:14;;;;;;;10.00;6.20;;;9.90;99.90;;;;;;5089369;28;20470;-70
2023/03/24 06:41:42;;;;;;;9.00;6.23;;;9.90;99.90;;;;;;5088709;28;21002;-71
2023/03/24 06:44:10;;;;;;;7.43;5.20;;;9.90;99.90;;;;;;5092766;28;20469;-70
2023/03/24 06:46:38;;;;;;;9.10;5.60;;;9.90;99.90;;;;;;5089533;28;20461;-69
2023/03/24 06:49:05;;;;;;;9.03;6.07;;;9.90;99.90;;;;;;5099714;28;20700;-71
2023/03/24 06:51:32;;;;;;;8.90;6.40;;;9.80;99.90;;;;;;5092840;28;20611;-70
2023/03/24 06:53:59;;;;;;;7.50;6.77;;;9.90;99.90;;;;;;5093491;28;20588;-70
2023/03/24 06:56:27;;;;;;;7.83;6.90;;;9.90;99.90;;;;;;5093976;28;20577;-71
2023/03/24 06:58:53;;;;;;;10.33;9.33;;;9.90;99.90;;;;;;5096555;28;20882;-71
2023/03/24 07:01:23;;;;;;;7.93;7.20;;;9.90;99.90;;;;;;5093238;28;20465;-71
2023/03/24 07:03:50;;;;;;;10.60;6.80;;;9.90;99.90;;;;;;5094449;28;20465;-71
2023/03/24 07:06:17;;;;;;;9.00;7.60;;;9.90;99.90;;;;;;5098977;28;20463;-71
2023/03/24 07:08:44;;;;;;;10.13;7.03;;;9.90;99.90;;;;;;5098568;28;20720;-71
2023/03/24 07:11:11;;;;;;;8.80;8.00;;;9.90;99.90;;;;;;5093072;28;20465;-70
2023/03/24 07:13:38;;;;;;;7.83;7.23;;;10.00;99.90;;;;;;5094443;28;20500;-71
2023/03/24 07:16:06;;;;;;;13.80;8.10;;;10.00;99.90;;;;;;5092999;28;20543;-69
2023/03/24 07:18:34;;;;;;;14.30;8.27;;;10.10;99.90;;;;;;5091482;28;20465;-71
2023/03/24 07:21:02;;;;;;;12.17;8.40;;;10.20;99.90;;;;;;5092178;28;20473;-70
2023/03/24 07:23:29;;;;;;;10.23;8.37;;;10.30;99.90;;;;;;5092246;28;20975;-71
2023/03/24 07:25:56;;;;;;;8.90;8.03;;;10.30;99.90;;;;;;5094021;28;20982;-70
2023/03/24 07:28:23;;;;;;;13.73;8.53;;;10.30;99.90;;;;;;5090528;28;20622;-69
2023/03/24 07:30:50;;;;;;;10.60;8.40;;;10.30;99.90;;;;;;5095319;28;20464;-70
2023/03/24 07:33:16;;;;;;;8.77;7.87;;;10.40;99.90;;;;;;5089759;28;20481;-71
2023/03/24 07:35:45;;;;;;;9.13;8.33;;;10.40;99.90;;;;;;5089558;28;20477;-71
2023/03/24 07:38:12;;;;;;;15.33;8.00;;;10.50;99.90;;;;;;5091137;28;20460;-71
2023/03/24 07:40:38;;;;;;;9.93;8.20;;;10.60;99.90;;;;;;5089801;28;20556;-71
2023/03/24 07:43:06;;;;;;;12.10;8.70;;;10.60;99.90;;;;;;5094020;28;21003;-70
2023/03/24 07:45:33;;;;;;;9.63;8.63;;;10.70;99.90;;;;;;5092947;28;20466;-70
2023/03/24 07:48:01;;;;;;;10.30;8.40;;;10.80;99.90;;;;;;5095353;28;20811;-71
2023/03/24 07:50:28;;;;;;;8.47;7.60;;;10.90;99.90;;;;;;5091680;27;20543;-71
2023/03/24 07:52:57;;;;;;;8.83;7.30;;;11.00;99.90;;;;;;5089003;28;20519;-70
2023/03/24 07:55:24;;;;;;;9.20;8.30;;;10.90;99.90;;;;;;5085913;28;20821;-71
2023/03/24 07:57:52;;;;;;;9.87;8.67;;;11.00;99.90;;;;;;5095858;28;20457;-70
2023/03/24 08:00:20;;;;;;;13.33;8.10;;;11.10;99.90;;;;;;5092938;28;20458;-71
2023/03/24 08:02:50;;;;;;;9.23;8.00;;;11.30;99.90;;;;;;5092113;28;20512;-71
2023/03/24 08:05:18;;;;;;;9.83;8.90;;;11.50;99.90;;;;;;5089951;28;20868;-70
2023/03/24 08:07:49;;;;;;;9.63;8.50;;;11.50;99.90;;;;;;5090312;28;20465;-70
2023/03/24 08:10:19;;;;;;;11.03;9.80;;;11.60;99.90;;;;;;5089885;28;20470;-71
2023/03/24 08:12:46;;;;;;;18.53;9.83;;;11.60;99.90;;;;;;5095049;28;20549;-70
2023/03/24 08:15:14;;;;;;;10.17;9.47;;;11.40;99.90;;;;;;5091694;28;20545;-71
2023/03/24 08:17:41;;;;;;;13.83;11.40;;;11.40;99.90;;;;;;5091230;28;20485;-71
2023/03/24 08:20:13;;;;;;;12.27;9.40;;;11.40;99.90;;;;;;5095938;28;20832;-71
2023/03/24 08:22:40;;;;;;;17.83;10.47;;;11.20;99.90;;;;;;5097530;28;20549;-70
2023/03/24 08:25:08;;;;;;;13.00;10.77;;;11.30;99.90;;;;;;5091683;28;20462;-71
2023/03/24 08:27:37;;;;;;;14.07;11.03;;;11.30;99.90;;;;;;5089003;28;20501;-71
2023/03/24 08:30:06;;;;;;;11.90;10.70;;;11.30;99.90;;;;;;5091236;28;20488;-71
2023/03/24 08:32:33;;;;;;;11.67;10.57;;;11.40;99.90;;;;;;5095955;28;20565;-72
2023/03/24 08:35:00;;;;;;;18.33;11.70;;;11.60;99.90;;;;;;5095262;28;20490;-71
2023/03/24 08:37:26;;;;;;;12.70;11.40;;;11.60;99.90;;;;;;5093098;28;20484;-70
2023/03/24 08:39:57;;;;;;;17.30;10.77;;;11.80;99.90;;;;;;5094195;28;20523;-71
2023/03/24 08:42:24;;;;;;;21.50;12.13;;;11.80;99.90;;;;;;5092711;28;20509;-70
2023/03/24 08:44:53;;;;;;;12.70;11.43;;;11.70;99.90;;;;;;5101251;28;20484;-71
2023/03/24 08:47:20;;;;;;;19.17;12.77;;;11.90;99.90;;;;;;5093305;28;21128;-71
2023/03/24 08:49:47;;;;;;;16.27;12.77;;;12.10;99.90;;;;;;5084861;28;21016;-71
2023/03/24 08:52:13;;;;;;;17.33;13.60;;;12.00;99.90;;;;;;5093883;28;20473;-70
2023/03/24 08:54:41;;;;;;;14.67;13.20;;;12.00;99.90;;;;;;5090759;28;20999;-70
2023/03/24 08:57:07;;;;;;;14.90;13.13;;;12.10;99.90;;;;;;5090722;28;20461;-72
2023/03/24 08:59:35;;;;;;;14.60;13.20;;;12.30;99.90;;;;;;5093894;28;20453;-71
2023/03/24 09:02:03;;;;;;;15.80;14.20;;;12.40;99.90;;;;;;5094244;28;20460;-72
2023/03/24 09:04:31;;;;;;;20.10;15.57;;;12.40;99.90;;;;;;5087162;28;20469;-71
2023/03/24 09:06:58;;;;;;;16.50;14.77;;;12.20;99.90;;;;;;5091382;28;20461;-72
2023/03/24 09:09:26;;;;;;;15.70;14.07;;;12.20;99.90;;;;;;5090599;28;20466;-70
2023/03/24 09:11:52;;;;;;;17.10;14.20;;;12.20;99.90;;;;;;5092660;28;21357;-71
2023/03/24 09:14:21;;;;;;;15.90;14.40;;;12.30;99.90;;;;;;5092926;28;20522;-70
2023/03/24 09:16:48;;;;;;;17.00;15.17;;;12.50;99.90;;;;;;5087758;28;20622;-69
2023/03/24 09:19:18;;;;;;;16.23;14.70;;;12.60;99.90;;;;;;5088630;28;20460;-70
2023/03/24 09:21:46;;;;;;;14.97;13.57;;;12.50;99.90;;;;;;5093558;28;20603;-70
2023/03/24 09:24:14;;;;;;;20.93;15.60;;;12.60;99.90;;;;;;5083487;28;20451;-71
2023/03/24 09:26:41;;;;;;;20.60;15.40;;;12.90;99.90;;;;;;5094697;28;20460;-71
2023/03/24 09:29:08;;;;;;;17.77;15.87;;;13.00;99.90;;;;;;5095263;28;20473;-71
2023/03/24 09:31:37;;;;;;;16.93;15.30;;;13.10;99.90;;;;;;5096122;28;20850;-70
2023/03/24 09:34:04;;;;;;;17.80;15.97;;;13.00;99.90;;;;;;5089638;28;20486;-71
2023/03/24 09:36:32;;;;;;;16.00;15.00;;;13.00;99.90;;;;;;5087595;28;20831;-72
2023/03/24 09:38:59;;;;;;;17.43;15.50;;;12.70;99.90;;;;;;5098744;28;20464;-72
2023/03/24 09:41:29;;;;;;;16.97;15.53;;;12.90;99.90;;;;;;5088726;28;20825;-71
2023/03/24 09:44:00;;;;;;;16.93;15.20;;;13.20;99.90;;;;;;5088494;28;20497;-70
2023/03/24 09:46:31;;;;;;;16.90;15.13;;;13.60;99.90;;;;;;5089349;28;20841;-71
2023/03/24 09:48:58;;;;;;;19.57;16.30;;;13.90;99.90;;;;;;5095259;28;20453;-71
2023/03/24 09:51:26;;;;;;;16.60;15.23;;;13.70;99.90;;;;;;5091996;28;20554;-70
2023/03/24 09:54:00;;;;;;;16.63;15.27;;;13.60;99.90;;;;;;5087483;28;20477;-71
2023/03/24 09:56:29;;;;;;;17.40;15.83;;;13.60;99.90;;;;;;5088089;28;20454;-70
2023/03/24 09:59:04;;;;;;;22.00;15.93;;;13.90;99.90;;;;;;5098679;28;20490;-71
2023/03/24 10:01:31;;;;;;;17.97;16.23;;;13.90;99.90;;;;;;5094749;28;20978;-71
2023/03/24 10:03:59;;;;;;;17.70;16.00;;;13.90;99.90;;;;;;5088977;28;20454;-71
2023/03/24 10:06:30;;;;;;;19.67;15.67;;;14.00;99.90;;;;;;5092015;28;20473;-71
2023/03/24 10:09:13;;;;;;;16.17;15.17;;;13.80;99.90;;;;;;5091301;28;20457;-72
2023/03/24 10:11:46;;;;;;;17.60;15.20;;;13.60;99.90;;;;;;5090817;28;20460;-71
2023/03/24 10:14:25;;;;;;;15.90;14.30;;;13.80;99.90;;;;;;5094441;28;20562;-70
2023/03/24 10:17:03;;;;;;;18.43;16.87;;;14.00;99.90;;;;;;5093350;28;20981;-70
2023/03/24 10:19:40;;;;;;;18.93;15.50;;;14.30;99.90;;;;;;5094651;28;20453;-71
2023/03/24 10:22:15;;;;;;;16.83;15.40;;;14.30;99.90;;;;;;5095128;28;20472;-70
2023/03/24 10:24:48;;;;;;;16.37;15.37;;;14.40;99.90;;;;;;5086759;28;20548;-72
2023/03/24 10:27:25;;;;;;;17.47;15.97;;;14.60;99.90;;;;;;5092549;28;20972;-70
2023/03/24 10:30:04;;;;;;;17.70;16.17;;;14.70;99.90;;;;;;5093069;28;20484;-70
2023/03/24 10:32:34;;;;;;;16.93;15.80;;;15.00;99.90;;;;;;5089562;28;20472;-72
2023/03/24 10:35:08;;;;;;;16.83;15.47;;;15.00;99.90;;;;;;5091567;28;20477;-72
2023/03/24 10:37:35;;;;;;;16.47;15.37;;;15.40;99.90;;;;;;5094663;28;20552;-71
2023/03/24 10:40:13;;;;;;;17.07;16.03;;;16.00;99.90;;;;;;5094331;28;20445;-69
2023/03/24 10:42:40;;;;;;;18.17;16.60;;;15.90;99.90;;;;;;5093359;28;20649;-70
2023/03/24 10:45:13;;;;;;;17.40;16.00;;;15.50;99.90;;;;;;5096129;28;20470;-71
2023/03/24 10:47:41;;;;;;;17.10;16.00;;;15.60;99.90;;;;;;5096205;28;20836;-71
2023/03/24 10:50:09;;;;;;;18.30;16.90;;;15.20;99.90;;;;;;5088131;28;20520;-71
2023/03/24 10:52:40;;;;;;;16.67;15.50;;;15.10;99.90;;;;;;5091700;28;20586;-69
2023/03/24 10:55:15;;;;;;;16.10;15.00;;;15.20;99.90;;;;;;5089237;28;21020;-71
2023/03/24 10:57:44;;;;;;;16.17;15.17;;;16.00;99.90;;;;;;5087350;28;20460;-69
2023/03/24 11:00:22;;;;;;;21.60;16.23;;;16.40;99.90;;;;;;5087682;28;20975;-69
2023/03/24 11:02:55;;;;;;;16.37;15.17;;;16.30;99.90;;;;;;5089700;28;20461;-71
2023/03/24 11:05:29;;;;;;;16.87;15.67;;;15.90;99.90;;;;;;5097126;28;20555;-70
2023/03/24 11:08:12;;;;;;;16.50;15.10;;;16.00;99.90;;;;;;5090914;28;20550;-70
2023/03/24 11:10:40;;;;;;;16.17;15.00;;;16.30;99.90;;;;;;5093579;28;20452;-70
2023/03/24 11:13:17;;;;;;;17.33;15.90;;;16.50;99.90;;;;;;5090679;28;20461;-70
2023/03/24 11:15:54;;;;;;;15.93;14.93;;;16.30;99.90;;;;;;5085980;28;20860;-71
2023/03/24 11:18:21;;;;;;;16.67;15.77;;;16.30;99.90;;;;;;5093009;28;20457;-70
2023/03/24 11:20:55;;;;;;;17.13;15.90;;;16.40;99.90;;;;;;5087721;28;20467;-70
2023/03/24 11:23:29;;;;;;;17.60;16.40;;;16.40;99.90;;;;;;5092289;28;20941;-71
2023/03/24 11:26:08;;;;;;;17.23;16.13;;;16.40;99.90;;;;;;5088331;28;20523;-71
2023/03/24 11:28:38;;;;;;;17.80;16.10;;;16.80;99.90;;;;;;5086663;28;20484;-70
2023/03/24 11:31:08;;;;;;;17.93;16.40;;;17.00;99.90;;;;;;5090421;28;20864;-70
2023/03/24 11:33:42;;;;;;;17.80;16.40;;;17.40;99.90;;;;;;5090272;28;20522;-71
2023/03/24 11:36:41;;;;;;;17.20;15.77;;;16.60;99.90;;;;;;5094841;28;20501;-71
2023/03/24 11:39:14;;;;;;;17.87;16.67;;;16.00;99.90;;;;;;5091131;28;20513;-71
2023/03/24 11:41:44;;;;;;;18.90;17.20;;;16.30;99.90;;;;;;5088323;28;20902;-72
2023/03/24 11:44:20;;;;;;;18.00;16.80;;;15.60;99.90;;;;;;5090627;28;20896;-71
2023/03/24 11:46:50;;;;;;;18.30;16.53;;;15.30;99.90;;;;;;5092867;28;20461;-71
2023/03/24 11:49:21;;;;;;;18.37;16.67;;;15.20;99.90;;;;;;5096320;28;20465;-71
2023/03/24 11:51:52;;;;;;;17.70;16.30;;;15.10;99.90;;;;;;5095179;28;20481;-71
2023/03/24 11:54:21;;;;;;;17.30;16.07;;;15.00;99.90;;;;;;5098874;28;20534;-71
2023/03/24 11:56:52;;;;;;;18.27;16.50;;;15.00;99.90;;;;;;5086511;28;20469;-70
2023/03/24 11:59:29;;;;;;;17.30;16.10;;;15.40;99.90;;;;;;5087295;28;20465;-72
2023/03/24 12:02:11;;;;;;;17.40;16.30;;;15.60;99.90;;;;;;5088035;28;20493;-72
2023/03/24 12:04:48;;;;;;;18.77;17.10;;;15.10;99.90;;;;;;5085062;28;20991;-71
2023/03/24 12:07:47;;;;;;;18.80;17.30;;;14.90;99.90;;;;;;5086618;28;20472;-72
2023/03/24 12:10:23;;;;;;;18.13;16.70;;;14.80;99.90;;;;;;5091642;28;20591;-72
2023/03/24 12:13:01;;;;;;;17.33;15.90;;;15.70;99.90;;;;;;5086558;28;20948;-73
2023/03/24 12:15:40;;;;;;;17.83;16.00;;;16.30;99.90;;;;;;5089139;28;20489;-71
2023/03/24 12:18:23;;;;;;;17.40;16.17;;;16.60;99.90;;;;;;5090276;28;20955;-73
2023/03/24 12:21:00;;;;;;;18.20;16.70;;;16.50;99.90;;;;;;5092267;28;20852;-73
2023/03/24 12:23:36;;;;;;;18.07;16.83;;;16.00;99.90;;;;;;5089276;28;20536;-72
2023/03/24 12:26:19;;;;;;;18.17;16.77;;;16.00;99.90;;;;;;5089624;28;21266;-73
2023/03/24 12:28:58;;;;;;;17.17;16.17;;;16.00;99.90;;;;;;5091779;28;20477;-72
2023/03/24 12:31:43;;;;;;;18.07;16.80;;;16.60;99.90;;;;;;5093738;28;20554;-72
2023/03/24 12:34:38;;;;;;;19.50;18.00;;;16.30;99.90;;;;;;5091841;28;20446;-72
2023/03/24 12:37:12;;;;;;;19.00;17.43;;;16.20;99.90;;;;;;5086935;28;20543;-72
2023/03/24 12:39:50;;;;;;;18.80;17.10;;;15.80;99.90;;;;;;5086626;28;20522;-71
2023/03/24 12:42:19;;;;;;;20.33;18.50;;;15.60;99.90;;;;;;5094132;28;20481;-71
2023/03/24 12:45:03;;;;;;;17.37;15.67;;;15.60;99.90;;;;;;5090314;28;20557;-71
2023/03/24 12:48:08;;;;;;;17.20;15.90;;;16.00;99.90;;;;;;5086566;28;20546;-71
2023/03/24 12:50:43;;;;;;;19.07;17.57;;;16.00;99.90;;;;;;5066648;28;20468;-71
2023/03/24 12:53:22;;;;;;;17.83;16.23;;;15.80;99.90;;;;;;5088456;28;20461;-71
2023/03/24 12:55:52;;;;;;;18.80;16.90;;;15.90;99.90;;;;;;5091347;28;20486;-70
2023/03/24 12:58:26;;;;;;;17.30;16.30;;;16.10;99.90;;;;;;5088848;28;20462;-70